sensor_id;sensor_type;location;lat;lon;timestamp;pressure;altitude;pressure_sealevel;temperature;humidity
35806;BME280;21925;44.608;11.580;2023-07-20T00:01:13;100950.53;;;27.50;73.99
35806;BME280;21925;44.608;11.580;2023-07-20T00:03:39;100975.88;;;27.84;72.37
35806;BME280;21925;44.608;11.580;2023-07-20T00:06:04;100962.31;;;27.70;73.03
35806;BME280;21925;44.608;11.580;2023-07-20T00:08:30;100975.72;;;27.32;75.53
35806;BME280;21925;44.608;11.580;2023-07-20T00:10:56;100964.38;;;27.11;77.66
35806;BME280;21925;44.608;11.580;2023-07-20T00:13:21;100961.28;;;26.71;81.07
35806;BME280;21925;44.608;11.580;2023-07-20T00:15:47;100969.09;;;26.27;87.09
35806;BME280;21925;44.608;11.580;2023-07-20T00:18:13;100966.63;;;26.29;87.70
35806;BME280;21925;44.608;11.580;2023-07-20T00:20:39;100978.78;;;26.38;87.85
35806;BME280;21925;44.608;11.580;2023-07-20T00:23:05;100972.19;;;26.04;90.76
35806;BME280;21925;44.608;11.580;2023-07-20T00:25:31;100961.44;;;26.15;88.70
35806;BME280;21925;44.608;11.580;2023-07-20T00:27:56;100964.47;;;26.08;88.79
35806;BME280;21925;44.608;11.580;2023-07-20T00:30:22;100958.66;;;26.27;88.54
35806;BME280;21925;44.608;11.580;2023-07-20T00:32:47;100960.09;;;26.19;86.93
35806;BME280;21925;44.608;11.580;2023-07-20T00:35:13;100955.72;;;26.31;85.08
35806;BME280;21925;44.608;11.580;2023-07-20T00:37:39;100940.13;;;26.67;81.84
35806;BME280;21925;44.608;11.580;2023-07-20T00:40:05;100944.81;;;26.58;81.85
35806;BME280;21925;44.608;11.580;2023-07-20T00:42:33;100953.25;;;26.33;83.98
35806;BME280;21925;44.608;11.580;2023-07-20T00:44:59;100956.31;;;25.69;86.99
35806;BME280;21925;44.608;11.580;2023-07-20T00:47:26;100938.84;;;25.49;89.36
35806;BME280;21925;44.608;11.580;2023-07-20T00:49:52;100925.16;;;25.80;87.84
35806;BME280;21925;44.608;11.580;2023-07-20T00:52:19;100924.06;;;26.02;87.27
35806;BME280;21925;44.608;11.580;2023-07-20T00:54:46;100935.75;;;25.88;88.49
35806;BME280;21925;44.608;11.580;2023-07-20T00:57:16;100941.22;;;25.79;91.09
35806;BME280;21925;44.608;11.580;2023-07-20T00:59:43;100936.50;;;25.76;90.73
35806;BME280;21925;44.608;11.580;2023-07-20T01:02:08;100948.31;;;25.55;92.50
35806;BME280;21925;44.608;11.580;2023-07-20T01:04:35;100965.41;;;25.16;93.67
35806;BME280;21925;44.608;11.580;2023-07-20T01:07:10;100964.94;;;25.02;94.32
35806;BME280;21925;44.608;11.580;2023-07-20T01:09:48;100961.19;;;24.93;94.94
35806;BME280;21925;44.608;11.580;2023-07-20T01:14:42;100969.97;;;24.79;100.00
35806;BME280;21925;44.608;11.580;2023-07-20T01:17:07;100942.50;;;24.70;100.00
35806;BME280;21925;44.608;11.580;2023-07-20T01:19:33;100953.81;;;24.67;100.00
35806;BME280;21925;44.608;11.580;2023-07-20T01:32:58;100971.66;;;24.57;100.00
35806;BME280;21925;44.608;11.580;2023-07-20T01:35:28;100982.63;;;24.32;100.00
35806;BME280;21925;44.608;11.580;2023-07-20T01:37:55;100968.63;;;24.51;100.00
35806;BME280;21925;44.608;11.580;2023-07-20T01:40:22;100970.16;;;24.52;100.00
35806;BME280;21925;44.608;11.580;2023-07-20T01:42:51;100982.03;;;24.60;100.00
35806;BME280;21925;44.608;11.580;2023-07-20T01:45:17;100968.53;;;24.55;100.00
35806;BME280;21925;44.608;11.580;2023-07-20T01:47:43;100967.63;;;24.58;100.00
35806;BME280;21925;44.608;11.580;2023-07-20T01:50:09;100961.44;;;24.50;100.00
35806;BME280;21925;44.608;11.580;2023-07-20T01:52:35;100955.38;;;24.52;100.00
35806;BME280;21925;44.608;11.580;2023-07-20T01:55:00;100958.72;;;24.63;100.00
35806;BME280;21925;44.608;11.580;2023-07-20T01:57:29;100945.22;;;25.21;100.00
35806;BME280;21925;44.608;11.580;2023-07-20T01:59:55;100945.94;;;25.25;100.00
35806;BME280;21925;44.608;11.580;2023-07-20T02:02:23;100941.88;;;25.26;100.00
35806;BME280;21925;44.608;11.580;2023-07-20T02:04:48;100938.81;;;25.21;100.00
35806;BME280;21925;44.608;11.580;2023-07-20T02:07:14;100931.41;;;25.43;100.00
35806;BME280;21925;44.608;11.580;2023-07-20T02:09:39;100949.00;;;25.31;100.00
35806;BME280;21925;44.608;11.580;2023-07-20T02:12:07;100945.13;;;25.25;100.00
35806;BME280;21925;44.608;11.580;2023-07-20T02:14:32;100942.47;;;25.62;100.00
35806;BME280;21925;44.608;11.580;2023-07-20T02:16:58;100927.34;;;25.72;100.00
35806;BME280;21925;44.608;11.580;2023-07-20T02:19:28;100936.66;;;25.97;100.00
35806;BME280;21925;44.608;11.580;2023-07-20T02:21:53;100938.19;;;25.86;100.00
35806;BME280;21925;44.608;11.580;2023-07-20T02:24:19;100940.34;;;25.82;100.00
35806;BME280;21925;44.608;11.580;2023-07-20T02:26:45;100940.72;;;25.96;100.00
35806;BME280;21925;44.608;11.580;2023-07-20T02:29:10;100943.22;;;26.19;100.00
35806;BME280;21925;44.608;11.580;2023-07-20T02:31:37;100938.69;;;25.97;100.00
35806;BME280;21925;44.608;11.580;2023-07-20T02:34:07;100950.44;;;25.80;100.00
35806;BME280;21925;44.608;11.580;2023-07-20T02:36:34;100967.56;;;25.69;100.00
35806;BME280;21925;44.608;11.580;2023-07-20T02:39:00;100968.97;;;25.77;100.00
35806;BME280;21925;44.608;11.580;2023-07-20T02:41:27;100947.69;;;25.92;100.00
35806;BME280;21925;44.608;11.580;2023-07-20T02:43:53;100930.47;;;25.90;100.00
35806;BME280;21925;44.608;11.580;2023-07-20T02:46:18;100932.44;;;25.77;100.00
35806;BME280;21925;44.608;11.580;2023-07-20T02:48:44;100942.59;;;25.59;100.00
35806;BME280;21925;44.608;11.580;2023-07-20T02:51:09;100950.88;;;25.78;100.00
35806;BME280;21925;44.608;11.580;2023-07-20T02:53:36;100947.00;;;25.72;100.00
35806;BME280;21925;44.608;11.580;2023-07-20T02:56:02;100959.88;;;25.57;100.00
35806;BME280;21925;44.608;11.580;2023-07-20T02:58:27;100964.06;;;25.65;100.00
35806;BME280;21925;44.608;11.580;2023-07-20T03:00:53;100965.44;;;25.73;100.00
35806;BME280;21925;44.608;11.580;2023-07-20T03:03:19;100967.34;;;25.92;100.00
35806;BME280;21925;44.608;11.580;2023-07-20T03:05:45;100958.47;;;25.93;100.00
35806;BME280;21925;44.608;11.580;2023-07-20T03:08:10;100958.72;;;26.11;100.00
35806;BME280;21925;44.608;11.580;2023-07-20T03:10:40;100965.13;;;26.12;100.00
35806;BME280;21925;44.608;11.580;2023-07-20T03:13:06;100973.91;;;26.14;100.00
35806;BME280;21925;44.608;11.580;2023-07-20T03:15:32;100968.69;;;26.41;100.00
35806;BME280;21925;44.608;11.580;2023-07-20T03:17:58;100971.25;;;26.35;100.00
35806;BME280;21925;44.608;11.580;2023-07-20T03:20:24;100972.41;;;26.63;100.00
35806;BME280;21925;44.608;11.580;2023-07-20T03:22:50;100975.69;;;26.61;100.00
35806;BME280;21925;44.608;11.580;2023-07-20T03:25:15;100985.91;;;26.67;100.00
35806;BME280;21925;44.608;11.580;2023-07-20T03:27:41;100977.34;;;26.83;100.00
35806;BME280;21925;44.608;11.580;2023-07-20T03:30:07;100953.38;;;27.04;100.00
35806;BME280;21925;44.608;11.580;2023-07-20T03:32:35;100954.69;;;26.99;100.00
35806;BME280;21925;44.608;11.580;2023-07-20T03:35:01;100956.53;;;26.56;100.00
35806;BME280;21925;44.608;11.580;2023-07-20T03:37:27;100953.91;;;26.37;100.00
35806;BME280;21925;44.608;11.580;2023-07-20T03:39:53;100959.56;;;26.86;100.00
35806;BME280;21925;44.608;11.580;2023-07-20T03:42:18;100949.09;;;26.87;100.00
35806;BME280;21925;44.608;11.580;2023-07-20T03:44:44;100961.13;;;27.00;99.71
35806;BME280;21925;44.608;11.580;2023-07-20T03:47:09;100955.63;;;27.09;99.55
35806;BME280;21925;44.608;11.580;2023-07-20T03:49:35;100955.75;;;27.05;99.83
35806;BME280;21925;44.608;11.580;2023-07-20T03:52:01;100959.69;;;27.08;99.32
35806;BME280;21925;44.608;11.580;2023-07-20T03:54:29;100971.84;;;26.67;100.00
35806;BME280;21925;44.608;11.580;2023-07-20T03:56:54;100972.63;;;26.56;100.00
35806;BME280;21925;44.608;11.580;2023-07-20T03:59:20;100960.69;;;26.76;100.00
35806;BME280;21925;44.608;11.580;2023-07-20T04:01:46;100957.66;;;26.83;99.83
35806;BME280;21925;44.608;11.580;2023-07-20T04:04:11;100973.41;;;26.56;100.00
35806;BME280;21925;44.608;11.580;2023-07-20T04:06:37;100975.88;;;26.54;100.00
35806;BME280;21925;44.608;11.580;2023-07-20T04:09:03;100961.81;;;26.54;100.00
35806;BME280;21925;44.608;11.580;2023-07-20T04:11:30;100971.19;;;26.51;98.39
35806;BME280;21925;44.608;11.580;2023-07-20T04:13:56;100964.09;;;26.71;97.85
35806;BME280;21925;44.608;11.580;2023-07-20T04:16:22;100974.53;;;26.59;98.87
35806;BME280;21925;44.608;11.580;2023-07-20T04:18:47;100988.53;;;26.34;99.71
35806;BME280;21925;44.608;11.580;2023-07-20T04:21:13;100979.03;;;26.56;96.72
35806;BME280;21925;44.608;11.580;2023-07-20T04:23:38;100966.31;;;26.39;98.67
35806;BME280;21925;44.608;11.580;2023-07-20T04:26:04;100957.31;;;26.32;98.19
35806;BME280;21925;44.608;11.580;2023-07-20T04:28:32;100974.16;;;26.32;100.00
35806;BME280;21925;44.608;11.580;2023-07-20T04:31:12;100972.97;;;26.45;98.75
35806;BME280;21925;44.608;11.580;2023-07-20T04:33:39;100976.69;;;26.55;96.45
35806;BME280;21925;44.608;11.580;2023-07-20T04:36:05;100982.09;;;26.62;95.67
35806;BME280;21925;44.608;11.580;2023-07-20T04:38:34;100973.16;;;26.38;95.11
35806;BME280;21925;44.608;11.580;2023-07-20T04:41:16;100980.63;;;26.45;92.77
35806;BME280;21925;44.608;11.580;2023-07-20T04:43:45;100991.69;;;26.23;94.41
35806;BME280;21925;44.608;11.580;2023-07-20T04:46:13;100985.78;;;26.05;95.21
35806;BME280;21925;44.608;11.580;2023-07-20T04:48:40;101008.00;;;26.28;95.10
35806;BME280;21925;44.608;11.580;2023-07-20T04:51:06;101011.22;;;26.14;96.42
35806;BME280;21925;44.608;11.580;2023-07-20T04:53:32;101013.94;;;26.18;96.63
35806;BME280;21925;44.608;11.580;2023-07-20T04:55:57;101011.16;;;26.30;95.10
35806;BME280;21925;44.608;11.580;2023-07-20T04:58:24;101011.72;;;26.38;93.73
35806;BME280;21925;44.608;11.580;2023-07-20T05:00:51;101008.13;;;26.25;94.35
35806;BME280;21925;44.608;11.580;2023-07-20T05:03:17;101013.84;;;26.34;94.19
35806;BME280;21925;44.608;11.580;2023-07-20T05:05:44;101024.47;;;26.42;96.44
35806;BME280;21925;44.608;11.580;2023-07-20T05:08:10;101004.69;;;26.58;94.72
35806;BME280;21925;44.608;11.580;2023-07-20T05:10:36;100997.38;;;27.10;91.50
35806;BME280;21925;44.608;11.580;2023-07-20T05:13:01;100990.19;;;26.84;90.36
35806;BME280;21925;44.608;11.580;2023-07-20T05:15:27;101004.59;;;26.99;90.38
35806;BME280;21925;44.608;11.580;2023-07-20T05:17:54;100999.19;;;26.67;93.34
35806;BME280;21925;44.608;11.580;2023-07-20T05:20:21;101008.06;;;26.65;95.21
35806;BME280;21925;44.608;11.580;2023-07-20T05:22:47;101012.91;;;26.53;93.86
35806;BME280;21925;44.608;11.580;2023-07-20T05:25:13;101021.34;;;26.53;94.03
35806;BME280;21925;44.608;11.580;2023-07-20T05:27:40;101029.81;;;26.77;94.70
35806;BME280;21925;44.608;11.580;2023-07-20T05:30:06;101023.06;;;26.75;93.67
35806;BME280;21925;44.608;11.580;2023-07-20T05:32:35;101020.34;;;26.71;92.41
35806;BME280;21925;44.608;11.580;2023-07-20T05:35:01;101016.84;;;26.67;91.67
35806;BME280;21925;44.608;11.580;2023-07-20T05:37:27;101001.09;;;26.70;93.38
35806;BME280;21925;44.608;11.580;2023-07-20T05:39:52;101014.72;;;26.96;93.57
35806;BME280;21925;44.608;11.580;2023-07-20T05:42:18;101019.22;;;27.06;92.75
35806;BME280;21925;44.608;11.580;2023-07-20T05:44:43;101023.06;;;26.87;92.18
35806;BME280;21925;44.608;11.580;2023-07-20T05:47:09;101022.16;;;27.15;89.44
35806;BME280;21925;44.608;11.580;2023-07-20T05:49:35;101020.78;;;26.95;91.03
35806;BME280;21925;44.608;11.580;2023-07-20T05:52:01;101027.69;;;26.81;93.84
35806;BME280;21925;44.608;11.580;2023-07-20T05:54:27;101025.28;;;26.92;93.76
35806;BME280;21925;44.608;11.580;2023-07-20T05:56:54;101025.41;;;26.76;95.78
35806;BME280;21925;44.608;11.580;2023-07-20T05:59:19;101019.31;;;26.78;96.11
35806;BME280;21925;44.608;11.580;2023-07-20T06:01:45;101026.53;;;26.79;94.88
35806;BME280;21925;44.608;11.580;2023-07-20T06:04:13;101024.28;;;26.86;95.10
35806;BME280;21925;44.608;11.580;2023-07-20T06:06:39;101037.78;;;27.16;93.36
35806;BME280;21925;44.608;11.580;2023-07-20T06:09:04;101030.94;;;27.17;92.88
35806;BME280;21925;44.608;11.580;2023-07-20T06:11:33;101032.53;;;27.06;94.78
35806;BME280;21925;44.608;11.580;2023-07-20T06:13:59;101012.16;;;27.48;91.88
35806;BME280;21925;44.608;11.580;2023-07-20T06:16:24;101025.34;;;27.63;92.00
35806;BME280;21925;44.608;11.580;2023-07-20T06:18:50;101026.47;;;27.53;89.89
35806;BME280;21925;44.608;11.580;2023-07-20T06:21:16;101042.56;;;27.65;89.56
35806;BME280;21925;44.608;11.580;2023-07-20T06:23:41;101039.72;;;27.78;87.14
35806;BME280;21925;44.608;11.580;2023-07-20T06:26:07;101044.69;;;27.74;87.10
35806;BME280;21925;44.608;11.580;2023-07-20T06:28:33;101040.03;;;27.80;86.23
35806;BME280;21925;44.608;11.580;2023-07-20T06:31:02;101042.69;;;28.38;83.72
35806;BME280;21925;44.608;11.580;2023-07-20T06:33:28;101047.09;;;28.39;82.61
35806;BME280;21925;44.608;11.580;2023-07-20T06:35:54;101033.50;;;28.47;83.20
35806;BME280;21925;44.608;11.580;2023-07-20T06:38:20;101042.66;;;28.60;82.90
35806;BME280;21925;44.608;11.580;2023-07-20T06:40:46;101036.50;;;28.52;81.64
35806;BME280;21925;44.608;11.580;2023-07-20T06:43:12;101041.63;;;28.66;81.68
35806;BME280;21925;44.608;11.580;2023-07-20T06:45:38;101051.38;;;29.13;78.99
35806;BME280;21925;44.608;11.580;2023-07-20T06:48:03;101050.91;;;29.06;78.84
35806;BME280;21925;44.608;11.580;2023-07-20T06:50:29;101056.44;;;29.18;78.61
35806;BME280;21925;44.608;11.580;2023-07-20T06:52:55;101050.34;;;29.29;78.48
35806;BME280;21925;44.608;11.580;2023-07-20T06:55:20;101045.47;;;29.29;78.02
35806;BME280;21925;44.608;11.580;2023-07-20T06:57:46;101056.78;;;30.04;76.47
35806;BME280;21925;44.608;11.580;2023-07-20T07:00:12;101041.03;;;29.77;75.04
35806;BME280;21925;44.608;11.580;2023-07-20T07:02:38;101043.22;;;29.82;75.71
35806;BME280;21925;44.608;11.580;2023-07-20T07:05:04;101049.50;;;29.68;77.45
35806;BME280;21925;44.608;11.580;2023-07-20T07:07:31;101056.25;;;29.79;76.04
35806;BME280;21925;44.608;11.580;2023-07-20T07:09:56;101059.88;;;30.33;73.65
35806;BME280;21925;44.608;11.580;2023-07-20T07:12:22;101053.03;;;30.76;71.40
35806;BME280;21925;44.608;11.580;2023-07-20T07:14:47;101045.88;;;31.30;72.96
35806;BME280;21925;44.608;11.580;2023-07-20T07:17:13;101057.63;;;31.70;67.93
35806;BME280;21925;44.608;11.580;2023-07-20T07:19:39;101061.09;;;31.88;68.27
35806;BME280;21925;44.608;11.580;2023-07-20T07:22:06;101050.84;;;31.91;67.32
35806;BME280;21925;44.608;11.580;2023-07-20T07:24:31;101062.66;;;32.27;65.93
35806;BME280;21925;44.608;11.580;2023-07-20T07:26:59;101058.84;;;32.16;66.61
35806;BME280;21925;44.608;11.580;2023-07-20T07:29:25;101054.88;;;32.65;66.18
35806;BME280;21925;44.608;11.580;2023-07-20T07:31:51;101059.34;;;33.01;66.88
35806;BME280;21925;44.608;11.580;2023-07-20T07:34:17;101056.34;;;33.24;65.20
35806;BME280;21925;44.608;11.580;2023-07-20T07:36:43;101047.13;;;33.63;63.61
35806;BME280;21925;44.608;11.580;2023-07-20T07:39:09;101054.38;;;33.84;62.83
35806;BME280;21925;44.608;11.580;2023-07-20T07:41:35;101052.59;;;34.07;62.39
35806;BME280;21925;44.608;11.580;2023-07-20T07:44:00;101058.63;;;33.94;64.23
35806;BME280;21925;44.608;11.580;2023-07-20T07:46:26;101055.81;;;33.74;62.74
35806;BME280;21925;44.608;11.580;2023-07-20T07:48:52;101047.13;;;33.63;62.53
35806;BME280;21925;44.608;11.580;2023-07-20T07:51:18;101052.81;;;34.54;63.69
35806;BME280;21925;44.608;11.580;2023-07-20T07:53:45;101056.34;;;34.69;62.28
35806;BME280;21925;44.608;11.580;2023-07-20T07:56:11;101041.41;;;34.79;61.50
35806;BME280;21925;44.608;11.580;2023-07-20T07:58:37;101036.38;;;34.99;61.78
35806;BME280;21925;44.608;11.580;2023-07-20T08:01:03;101057.69;;;35.40;60.16
35806;BME280;21925;44.608;11.580;2023-07-20T08:03:29;101047.50;;;35.76;61.30
35806;BME280;21925;44.608;11.580;2023-07-20T08:05:55;101039.78;;;35.82;58.95
35806;BME280;21925;44.608;11.580;2023-07-20T08:08:22;101048.78;;;35.69;57.42
35806;BME280;21925;44.608;11.580;2023-07-20T08:10:48;101047.34;;;35.48;60.27
35806;BME280;21925;44.608;11.580;2023-07-20T08:13:13;101048.31;;;35.76;60.01
35806;BME280;21925;44.608;11.580;2023-07-20T08:15:41;101047.84;;;35.94;59.21
35806;BME280;21925;44.608;11.580;2023-07-20T08:18:07;101044.53;;;36.12;58.76
35806;BME280;21925;44.608;11.580;2023-07-20T08:20:33;101042.56;;;36.62;60.64
35806;BME280;21925;44.608;11.580;2023-07-20T08:23:01;101034.00;;;36.56;57.89
35806;BME280;21925;44.608;11.580;2023-07-20T08:25:26;101048.78;;;36.38;57.88
35806;BME280;21925;44.608;11.580;2023-07-20T08:27:52;101037.78;;;35.98;58.19
35806;BME280;21925;44.608;11.580;2023-07-20T08:30:21;101039.72;;;36.72;57.77
35806;BME280;21925;44.608;11.580;2023-07-20T08:32:47;101037.06;;;37.29;56.79
35806;BME280;21925;44.608;11.580;2023-07-20T08:35:13;101036.03;;;37.32;56.02
35806;BME280;21925;44.608;11.580;2023-07-20T08:37:40;101032.91;;;37.30;57.37
35806;BME280;21925;44.608;11.580;2023-07-20T08:40:06;101034.25;;;37.35;58.52
35806;BME280;21925;44.608;11.580;2023-07-20T08:42:35;101029.44;;;37.64;56.89
35806;BME280;21925;44.608;11.580;2023-07-20T08:45:04;101034.63;;;37.77;54.97
35806;BME280;21925;44.608;11.580;2023-07-20T08:47:31;101025.28;;;37.65;55.32
35806;BME280;21925;44.608;11.580;2023-07-20T08:49:57;101023.56;;;38.03;54.89
35806;BME280;21925;44.608;11.580;2023-07-20T08:52:24;101031.56;;;38.21;55.92
35806;BME280;21925;44.608;11.580;2023-07-20T08:54:50;101030.41;;;38.35;56.64
35806;BME280;21925;44.608;11.580;2023-07-20T08:57:18;101024.75;;;38.24;54.04
35806;BME280;21925;44.608;11.580;2023-07-20T08:59:45;101021.31;;;37.85;52.90
35806;BME280;21925;44.608;11.580;2023-07-20T09:02:15;101027.59;;;38.18;54.72
35806;BME280;21925;44.608;11.580;2023-07-20T09:04:44;101026.09;;;38.12;52.68
35806;BME280;21925;44.608;11.580;2023-07-20T09:07:10;101023.56;;;38.03;52.77
35806;BME280;21925;44.608;11.580;2023-07-20T09:09:40;101016.16;;;37.78;53.66
35806;BME280;21925;44.608;11.580;2023-07-20T09:12:13;101025.72;;;37.91;53.17
35806;BME280;21925;44.608;11.580;2023-07-20T09:14:42;101020.03;;;37.69;54.02
35806;BME280;21925;44.608;11.580;2023-07-20T09:17:13;101013.28;;;37.67;55.42
35806;BME280;21925;44.608;11.580;2023-07-20T09:19:45;101021.00;;;36.93;55.30
35806;BME280;21925;44.608;11.580;2023-07-20T09:22:11;101026.19;;;37.95;54.67
35806;BME280;21925;44.608;11.580;2023-07-20T09:24:37;101021.28;;;37.90;53.88
35806;BME280;21925;44.608;11.580;2023-07-20T09:27:03;100998.72;;;37.76;53.44
35806;BME280;21925;44.608;11.580;2023-07-20T09:29:29;101013.72;;;38.97;53.90
35806;BME280;21925;44.608;11.580;2023-07-20T09:32:03;101021.59;;;39.44;53.56
35806;BME280;21925;44.608;11.580;2023-07-20T09:34:30;101019.78;;;39.84;53.70
35806;BME280;21925;44.608;11.580;2023-07-20T09:36:59;101012.28;;;40.17;52.04
35806;BME280;21925;44.608;11.580;2023-07-20T09:39:26;101018.91;;;40.12;51.49
35806;BME280;21925;44.608;11.580;2023-07-20T09:41:51;101012.00;;;40.03;50.71
35806;BME280;21925;44.608;11.580;2023-07-20T09:44:17;101008.34;;;40.20;50.75
35806;BME280;21925;44.608;11.580;2023-07-20T09:46:44;101017.22;;;40.54;51.01
35806;BME280;21925;44.608;11.580;2023-07-20T09:49:10;101012.28;;;40.17;48.00
35806;BME280;21925;44.608;11.580;2023-07-20T09:51:36;100998.72;;;40.18;50.44
35806;BME280;21925;44.608;11.580;2023-07-20T09:54:03;101003.75;;;40.93;50.17
35806;BME280;21925;44.608;11.580;2023-07-20T09:56:30;101009.91;;;40.71;49.20
35806;BME280;21925;44.608;11.580;2023-07-20T09:58:56;101009.78;;;40.45;50.97
35806;BME280;21925;44.608;11.580;2023-07-20T10:01:23;100990.53;;;41.16;49.79
35806;BME280;21925;44.608;11.580;2023-07-20T10:03:51;101005.34;;;41.20;48.62
35806;BME280;21925;44.608;11.580;2023-07-20T10:06:25;101005.34;;;41.72;49.38
35806;BME280;21925;44.608;11.580;2023-07-20T10:08:58;100993.38;;;41.29;48.25
35806;BME280;21925;44.608;11.580;2023-07-20T10:11:26;101000.91;;;41.83;47.82
35806;BME280;21925;44.608;11.580;2023-07-20T10:13:58;100997.69;;;41.48;48.48
35806;BME280;21925;44.608;11.580;2023-07-20T10:16:34;100998.06;;;41.58;47.83
35806;BME280;21925;44.608;11.580;2023-07-20T10:19:06;100992.91;;;41.89;46.67
35806;BME280;21925;44.608;11.580;2023-07-20T10:21:35;101005.84;;;42.09;47.92
35806;BME280;21925;44.608;11.580;2023-07-20T10:24:03;100992.06;;;41.17;47.18
35806;BME280;21925;44.608;11.580;2023-07-20T10:26:29;100998.88;;;42.04;47.84
35806;BME280;21925;44.608;11.580;2023-07-20T10:28:55;100996.16;;;42.73;48.42
35806;BME280;21925;44.608;11.580;2023-07-20T10:31:22;100992.28;;;41.45;46.42
35806;BME280;21925;44.608;11.580;2023-07-20T10:33:49;100997.16;;;41.24;46.36
35806;BME280;21925;44.608;11.580;2023-07-20T10:36:16;100987.63;;;41.03;47.49
35806;BME280;21925;44.608;11.580;2023-07-20T10:38:51;100997.84;;;40.73;48.06
35806;BME280;21925;44.608;11.580;2023-07-20T10:41:34;100990.63;;;41.62;48.85
35806;BME280;21925;44.608;11.580;2023-07-20T10:44:02;100985.53;;;42.14;48.39
35806;BME280;21925;44.608;11.580;2023-07-20T10:46:44;100982.41;;;41.01;47.02
35806;BME280;21925;44.608;11.580;2023-07-20T10:49:12;100984.31;;;41.51;48.26
35806;BME280;21925;44.608;11.580;2023-07-20T10:51:59;100972.16;;;41.19;47.85
35806;BME280;21925;44.608;11.580;2023-07-20T10:56:50;100970.50;;;42.90;47.44
35806;BME280;21925;44.608;11.580;2023-07-20T10:59:23;100965.97;;;42.74;47.39
35806;BME280;21925;44.608;11.580;2023-07-20T11:02:06;100963.91;;;42.82;47.04
35806;BME280;21925;44.608;11.580;2023-07-20T11:04:42;100969.34;;;43.41;46.22
35806;BME280;21925;44.608;11.580;2023-07-20T11:07:08;100966.81;;;43.38;44.61
35806;BME280;21925;44.608;11.580;2023-07-20T11:09:35;100960.94;;;43.50;45.67
35806;BME280;21925;44.608;11.580;2023-07-20T11:14:59;100961.81;;;43.73;46.06
35806;BME280;21925;44.608;11.580;2023-07-20T11:17:31;100946.88;;;43.19;45.08
35806;BME280;21925;44.608;11.580;2023-07-20T11:19:58;100949.63;;;44.10;46.08
35806;BME280;21925;44.608;11.580;2023-07-20T11:22:26;100950.78;;;44.22;45.09
35806;BME280;21925;44.608;11.580;2023-07-20T11:24:55;100954.50;;;43.80;44.08
35806;BME280;21925;44.608;11.580;2023-07-20T11:27:21;100948.03;;;43.51;44.30
35806;BME280;21925;44.608;11.580;2023-07-20T11:29:50;100941.88;;;43.20;45.46
35806;BME280;21925;44.608;11.580;2023-07-20T11:32:21;100941.31;;;43.99;43.46
35806;BME280;21925;44.608;11.580;2023-07-20T11:34:48;100944.09;;;43.06;43.89
35806;BME280;21925;44.608;11.580;2023-07-20T11:37:14;100926.56;;;42.76;44.38
35806;BME280;21925;44.608;11.580;2023-07-20T11:39:40;100924.38;;;42.08;47.09
35806;BME280;21925;44.608;11.580;2023-07-20T11:42:06;100941.34;;;43.01;44.25
35806;BME280;21925;44.608;11.580;2023-07-20T11:44:32;100930.69;;;42.68;45.30
35806;BME280;21925;44.608;11.580;2023-07-20T11:47:08;100928.09;;;42.57;44.61
35806;BME280;21925;44.608;11.580;2023-07-20T11:49:38;100926.72;;;42.51;44.96
35806;BME280;21925;44.608;11.580;2023-07-20T11:52:08;100918.34;;;41.86;46.93
35806;BME280;21925;44.608;11.580;2023-07-20T11:54:35;100920.56;;;41.34;46.04
35806;BME280;21925;44.608;11.580;2023-07-20T11:57:03;100924.88;;;42.20;46.22
35806;BME280;21925;44.608;11.580;2023-07-20T11:59:31;100918.88;;;40.87;46.64
35806;BME280;21925;44.608;11.580;2023-07-20T12:01:58;100928.16;;;41.44;47.39
35806;BME280;21925;44.608;11.580;2023-07-20T12:04:24;100904.25;;;41.95;45.96
35806;BME280;21925;44.608;11.580;2023-07-20T12:06:49;100904.59;;;41.20;46.52
35806;BME280;21925;44.608;11.580;2023-07-20T12:09:16;100904.19;;;42.08;45.84
35806;BME280;21925;44.608;11.580;2023-07-20T12:11:44;100895.88;;;41.72;45.52
35806;BME280;21925;44.608;11.580;2023-07-20T12:14:13;100900.25;;;41.85;46.03
35806;BME280;21925;44.608;11.580;2023-07-20T12:16:38;100891.94;;;42.76;46.61
35806;BME280;21925;44.608;11.580;2023-07-20T12:19:13;100901.31;;;42.97;47.51
35806;BME280;21925;44.608;11.580;2023-07-20T12:21:40;100896.09;;;43.24;47.61
35806;BME280;21925;44.608;11.580;2023-07-20T12:24:08;100900.75;;;42.71;45.66
35806;BME280;21925;44.608;11.580;2023-07-20T12:26:35;100897.59;;;41.87;47.14
35806;BME280;21925;44.608;11.580;2023-07-20T12:29:01;100889.63;;;41.93;47.34
35806;BME280;21925;44.608;11.580;2023-07-20T12:31:29;100890.91;;;42.26;48.31
35806;BME280;21925;44.608;11.580;2023-07-20T12:33:56;100883.59;;;42.45;46.12
35806;BME280;21925;44.608;11.580;2023-07-20T12:36:23;100878.13;;;42.34;46.72
35806;BME280;21925;44.608;11.580;2023-07-20T12:38:49;100873.97;;;41.69;47.88
35806;BME280;21925;44.608;11.580;2023-07-20T12:41:15;100876.22;;;41.96;46.99
35806;BME280;21925;44.608;11.580;2023-07-20T12:43:44;100868.75;;;41.21;47.81
35806;BME280;21925;44.608;11.580;2023-07-20T12:46:11;100874.28;;;41.06;47.60
35806;BME280;21925;44.608;11.580;2023-07-20T12:48:39;100862.44;;;40.96;48.80
35806;BME280;21925;44.608;11.580;2023-07-20T12:51:07;100865.28;;;41.81;47.01
35806;BME280;21925;44.608;11.580;2023-07-20T12:53:33;100875.28;;;41.21;47.31
35806;BME280;21925;44.608;11.580;2023-07-20T12:56:00;100861.97;;;42.31;45.05